Logo AVAMET
Benvolgut visitant, si us plau, ingressa Recuperar contrasenya
AVAMET paisatges

Llíria Bodegas del Campo

Dades diàries. Acumulats / Últims 30 dies disponibles

Data Temperatura (°C) Humitat rel. (%) Pressió rel. (hPa) Vent (km/h) Precipitació
Mínima Mitjana Màxima Amplitud
tèrmica
Mínima Mitjana Màxima Mínima Mitjana Màxima Predom. Mitjana Ràfega
màxima
Total
(mm)
Índex-n
Mínima Mitjana Màxima Mínima Mitjana Màxima n
0 a 1
P0 max
mm 5'
Dades mensuals acumulades fins l'últim dia disponible
10/2020 4,9 10,6 15,2 16,2 19,0 22,6 30,5 25,6 19 57 99 993 1.018 1.028   7,6 85,0 8,1
Dades anuals acumulades fins l'últim dia disponible
2020 0,5 11,9 22,9 17,2 7,5 23,0 35,2 34,7 14 65 99 993 1.020 1.038   6,5 98,0 417,0
Últims 30 dies disponibles
28-10-2020 9,2     13,1     20,2 11,0 43 56 66 1.021 1.022 1.025 NE 4,1 17,0 0,0
27-10-2020 5,6     13,5     21,0 15,4 30 46 68 1.017 1.020 1.022 S 7,7 36,0 0,0
26-10-2020 7,7     14,3     19,0 11,3 28 41 60 1.016 1.018 1.023 SO 11,7 51,0 0,0
25-10-2020 11,9     16,6     20,9 9,0 42 54 70 1.014 1.019 1.023 OSO 12,9 59,0 0,0
24-10-2020 7,7     13,2     22,7 15,0 42 58 75 1.022 1.026 1.028 SSE 7,2 42,0 0,0
23-10-2020 10,3     15,6     21,5 11,2 36 68 99 1.019 1.022 1.027 SSE 8,6 40,0 0,3
22-10-2020 14,5     17,2     20,9 6,4 47 77 99 1.014 1.017 1.019 ENE 2,4 22,0 6,0 0,51 0,90
21-10-2020 14,7     19,0     25,7 11,0 36 65 84 1.011 1.013 1.016 ESE 5,8 38,0 0,0
20-10-2020 14,6     17,0     20,3 5,7 70 80 86 1.013 1.017 1.022 ENE 3,2 27,0 0,0
19-10-2020 10,2     15,1     20,6 10,4 54 77 92 1.021 1.023 1.025 ENE 5,4 24,0 0,0
18-10-2020 9,4     14,5     21,5 12,1 35 64 90 1.022 1.023 1.025 ENE 6,7 27,0 0,0
17-10-2020 7,9     13,9     22,1 14,2 25 60 81 1.016 1.020 1.023 E 6,9 44,0 0,0
16-10-2020 4,9     10,2     19,8 14,9 27 54 68 1.017 1.020 1.022 ENE 4,4 33,0 0,0
15-10-2020 7,4     13,8     19,9 12,5 26 43 61 1.015 1.017 1.019 S 9,5 40,0 0,0
14-10-2020 11,2     15,9     21,1 9,9 26 58 81 1.010 1.012 1.017 ESE 4,6 49,0 0,0
13-10-2020 10,6     18,2     25,8 15,2 30 44 59 1.011 1.016 1.022 SSE 8,5 46,0 0,0
12-10-2020 10,8     15,7     21,8 11,0 28 41 57 1.020 1.022 1.024 S 14,0 85,0 0,0
11-10-2020 9,7     16,5     22,3 12,6 22 44 88 1.021 1.023 1.025 SSE 9,5 71,0 0,0
10-10-2020 13,9     18,5     23,2 9,3 62 80 92 1.022 1.024 1.025 E 4,9 28,0 0,0
09-10-2020 13,3     18,7     25,1 11,8 54 79 92 1.022 1.024 1.026 ESE 4,9 30,0 0,0
08-10-2020 14,0     19,2     25,1 11,1 55 70 84 1.023 1.026 1.027 E 5,8 27,0 0,0
07-10-2020 15,2     21,6     29,2 14,0 31 48 65 1.020 1.023 1.026 E 5,6 31,0 0,0
06-10-2020 10,7     18,6     27,4 16,7 29 47 62 1.019 1.022 1.024 E 5,2 26,0 0,0
05-10-2020 10,8     15,9     23,5 12,7 24 48 64 1.014 1.018 1.024 ESE 5,9 48,0 0,0
04-10-2020 8,2     14,9     20,6 12,4 36 49 67 1.008 1.011 1.014 S 10,6 60,0 0,0
03-10-2020 8,7     14,6     21,1 12,4 31 46 65 1.003 1.007 1.013 SO 12,5 50,0 0,0
02-10-2020 11,8     16,3     20,8 9,0 45 59 87 993 1.000 1.007 O 15,5 60,0 1,8
01-10-2020 13,0     21,4     30,5 17,5 19 47 91 1.006 1.010 1.016 SE 8,3 48,0 0,0
30-09-2020 11,8     17,7     24,9 13,1 50 76 90 1.015 1.018 1.021 E 5,1 30,0 0,0
29-09-2020 12,2     17,0     24,4 12,2 45 67 84 1.018 1.021 1.022 ENE 6,4 28,0 0,0
Últims 13 mesos disponibles
09/2020 9,0 15,2 18,2 20,8 23,1 27,0 30,7 21,7 32 60 86 1.013 1.019 1.025 E 6,8 62,0 15,9
08/2020 11,1 19,1 22,9 24,2 23,6 30,8 35,2 24,1 43 64 79 1.006 1.016 1.021 E 5,7 51,0 8,4
07/2020 15,9 18,8 21,3 24,8 26,6 30,7 35,2 19,3 36 62 81 1.012 1.018 1.023 E 6,7 39,0 23,1
06/2020 10,1 15,3 22,9 21,1 20,7 27,4 31,0 20,9 39 61 89 1.007 1.016 1.023 ESE 6,8 51,0 15,9
05/2020 9,6 13,2 16,8 18,9 16,3 25,0 30,9 21,3 45 64 83 1.007 1.019 1.030 E 6,5 58,0 23,7
04/2020 4,9 9,6 14,6 13,6 13,9 18,4 23,4 18,5 46 76 97 1.008 1.018 1.029 E 5,5 65,0 78,3
03/2020 2,7 7,6 12,4 11,9 8,0 16,4 25,4 22,7 42 69 97 1.009 1.020 1.030 E 7,0 98,0 77,4
02/2020 3,5 7,3 12,0 12,8 10,8 19,8 25,7 22,2 31 64 95 1.016 1.028 1.035 ENE 5,7 51,0 1,5
01/2020 0,5 4,7 12,1 9,1 7,5 14,4 21,1 20,6 39 68 90 1.020 1.028 1.035 ENE 7,1 80,0 164,7
11/2019 1,9 8,5 18,0 13,0 13,0 17,6 26,9 25,0 43 53 84 1.000 1.013 1.020 O 11,9 87,0 7,5
10/2019 7,1 13,3 17,4 18,5 14,3 23,8 32,7 25,6 38 62 86 1.010 1.019 1.024 E 6,4 51,0 21,9
Tots els anys disponibles
Temperatura (°C)
Humitat relativa (%)
Velocitat del vent i ràfega màxima (km/h)
Direcció del vent (°)
Pressió (hPa)
Precipitació (mm)
Nota sobre les dades: s'avisa a l'usuari de la provisionalitat i no oficialitat d'aquestes dades
Logo AVAMET blanc
Web allotjada a Sollutia
Llicència de Creative CommonsLa web d'AVAMET i els seus continguts estan subjectes a una llicència de
Reconeixement - No Comercial - Compartir igual
Avís legal - Política de privacitat - Política de cookies
PRÒXIMES ESTACIONS: El Fondó dels Frares (Estació pròpia d'AVAMET nº34); NOVES ESTACIONS: Agres - Foia Ampla de Mariola (Socis), Beniarjó (Inforatge), Sueca - Mareny de Barraquetes (Inforatge), La Vilavella - Centre (Ajuntament Soci), Alfondeguilla (Soci), Santa Magdalena de Polpís (Soci), Benafigos (Ajuntament/Socis), Carlet - Ajuntament (Inforatge), Montroi (Inforatge), Bronchales (Limítrofe-Terol/Aj. Soci) - - -